createdAt,value
2023-05-15T00:01:15.055Z,24.27
2023-05-15T00:03:49.525Z,28.15
2023-05-15T00:06:18.043Z,35.80
2023-05-15T00:08:49.989Z,30.30
2023-05-15T00:11:19.329Z,22.70
2023-05-15T00:13:49.910Z,23.02
2023-05-15T00:16:19.280Z,27.10
2023-05-15T00:18:48.643Z,24.23
2023-05-15T00:21:18.097Z,26.77
2023-05-15T00:23:48.736Z,20.42
2023-05-15T00:26:20.651Z,28.38
2023-05-15T00:28:49.990Z,33.08
2023-05-15T00:31:19.937Z,25.65
2023-05-15T00:33:48.564Z,23.80
2023-05-15T00:36:22.817Z,25.58
2023-05-15T00:38:52.445Z,37.03
2023-05-15T00:41:24.370Z,32.10
2023-05-15T00:43:54.364Z,31.75
2023-05-15T00:46:24.092Z,38.97
2023-05-15T00:48:54.284Z,40.95
2023-05-15T00:51:26.436Z,29.15
2023-05-15T00:53:56.788Z,30.15
2023-05-15T00:56:31.486Z,30.92
2023-05-15T00:59:03.181Z,28.27
2023-05-15T01:01:34.735Z,31.73
2023-05-15T01:04:05.093Z,27.45
2023-05-15T01:06:34.678Z,26.08
2023-05-15T01:09:05.309Z,36.60
2023-05-15T01:11:39.332Z,29.38
2023-05-15T01:14:10.772Z,26.58
2023-05-15T01:16:41.548Z,28.70
2023-05-15T01:19:09.822Z,23.33
2023-05-15T01:22:26.117Z,23.42
2023-05-15T01:25:38.861Z,26.45
2023-05-15T01:28:13.173Z,28.30
2023-05-15T01:30:45.915Z,27.02
2023-05-15T01:33:24.592Z,28.48
2023-05-15T01:36:02.197Z,31.23
2023-05-15T01:38:38.052Z,31.77
2023-05-15T01:41:16.564Z,29.95
2023-05-15T01:43:56.817Z,32.05
2023-05-15T01:46:29.674Z,29.50
2023-05-15T01:49:02.594Z,24.30
2023-05-15T01:51:34.540Z,26.10
2023-05-15T01:54:07.586Z,23.77
2023-05-15T01:56:37.894Z,25.63
2023-05-15T01:59:10.493Z,27.45
2023-05-15T02:01:40.083Z,28.50
2023-05-15T02:04:11.942Z,39.00
2023-05-15T02:06:43.974Z,38.00
2023-05-15T02:09:14.889Z,32.72
2023-05-15T02:11:44.236Z,35.47
2023-05-15T02:14:15.883Z,36.70
2023-05-15T02:16:44.142Z,26.73
2023-05-15T02:19:14.868Z,22.13
2023-05-15T02:21:44.402Z,25.83
2023-05-15T02:24:13.741Z,21.85
2023-05-15T02:26:57.949Z,24.38
2023-05-15T02:29:39.202Z,31.55
2023-05-15T02:32:16.151Z,24.38
2023-05-15T02:34:52.468Z,24.55
2023-05-15T02:37:33.205Z,24.45
2023-05-15T02:40:02.783Z,27.67
2023-05-15T02:42:32.236Z,29.17
2023-05-15T02:45:03.836Z,27.73
2023-05-15T02:47:36.531Z,26.67
2023-05-15T02:50:08.146Z,26.48
2023-05-15T02:52:38.765Z,25.42
2023-05-15T02:55:08.586Z,36.58
2023-05-15T02:57:37.941Z,36.13
2023-05-15T03:00:13.023Z,36.03
2023-05-15T03:02:41.158Z,37.33
2023-05-15T03:05:12.236Z,37.38
2023-05-15T03:07:42.411Z,30.38
2023-05-15T03:10:13.261Z,27.77
2023-05-15T03:12:41.844Z,25.20
2023-05-15T03:15:13.076Z,24.17
2023-05-15T03:17:42.445Z,24.35
2023-05-15T03:20:11.173Z,25.50
2023-05-15T03:22:40.909Z,28.15
2023-05-15T03:25:13.639Z,29.65
2023-05-15T03:27:43.546Z,30.80
2023-05-15T03:32:42.294Z,23.98
2023-05-15T03:35:11.867Z,26.73
2023-05-15T03:37:42.600Z,28.50
2023-05-15T03:40:14.535Z,32.95
2023-05-15T03:42:44.151Z,31.65
2023-05-15T03:45:15.189Z,29.48
2023-05-15T03:47:45.568Z,31.20
2023-05-15T03:50:14.224Z,33.45
2023-05-15T03:52:42.549Z,26.23
2023-05-15T03:55:11.105Z,27.30
2023-05-15T03:57:41.863Z,32.05
2023-05-15T04:00:14.895Z,30.02
2023-05-15T04:02:45.323Z,33.40
2023-05-15T04:05:15.388Z,33.90
2023-05-15T04:07:44.220Z,37.10
2023-05-15T04:10:13.681Z,36.35
2023-05-15T04:12:44.300Z,33.72
2023-05-15T04:15:20.953Z,35.05
2023-05-15T04:17:50.978Z,35.30
2023-05-15T04:20:22.729Z,32.88
2023-05-15T04:22:51.663Z,35.15
2023-05-15T04:25:21.648Z,34.90
2023-05-15T04:27:51.089Z,37.30
2023-05-15T04:30:21.926Z,37.78
2023-05-15T04:32:51.783Z,38.90
2023-05-15T04:35:20.716Z,38.58
2023-05-15T04:37:48.842Z,41.58
2023-05-15T04:40:17.241Z,44.33
2023-05-15T04:42:46.632Z,40.88
2023-05-15T04:45:16.142Z,41.92
2023-05-15T04:47:46.902Z,43.70
2023-05-15T04:50:16.355Z,43.55
2023-05-15T04:52:46.845Z,36.25
2023-05-15T04:55:16.351Z,35.63
2023-05-15T04:57:45.982Z,30.35
2023-05-15T05:00:17.005Z,32.95
2023-05-15T05:02:47.782Z,34.15
2023-05-15T05:05:17.107Z,34.67
2023-05-15T05:07:47.509Z,35.35
2023-05-15T05:10:16.809Z,33.63
2023-05-15T05:12:47.656Z,28.05
2023-05-15T05:15:17.151Z,26.60
2023-05-15T05:17:48.452Z,24.88
2023-05-15T05:20:18.014Z,23.42
2023-05-15T05:22:46.593Z,22.08
2023-05-15T05:25:17.623Z,24.02
2023-05-15T05:27:47.262Z,18.92
2023-05-15T05:30:18.285Z,23.10
2023-05-15T05:32:47.853Z,19.58
2023-05-15T05:35:18.845Z,18.73
2023-05-15T05:37:46.948Z,20.73
2023-05-15T05:40:18.840Z,18.20
2023-05-15T05:42:47.600Z,16.52
2023-05-15T05:45:18.612Z,18.65
2023-05-15T05:47:48.163Z,15.45
2023-05-15T05:50:18.139Z,15.82
2023-05-15T05:52:47.714Z,16.45
2023-05-15T05:55:16.242Z,16.95
2023-05-15T06:00:15.968Z,14.13
2023-05-15T06:02:48.326Z,17.90
2023-05-15T06:05:18.151Z,17.48
2023-05-15T06:07:46.782Z,14.75
2023-05-15T06:10:17.192Z,13.35
2023-05-15T06:12:45.567Z,14.55
2023-05-15T06:15:14.315Z,15.20
2023-05-15T06:17:42.973Z,14.40
2023-05-15T06:20:13.306Z,13.73
2023-05-15T06:22:41.578Z,14.30
2023-05-15T06:25:13.755Z,15.48
2023-05-15T06:27:44.521Z,15.90
2023-05-15T06:30:15.567Z,14.65
2023-05-15T06:32:44.970Z,14.88
2023-05-15T06:35:17.121Z,14.15
2023-05-15T06:37:50.109Z,14.73
2023-05-15T06:40:19.754Z,15.93
2023-05-15T06:42:49.088Z,14.13
2023-05-15T06:47:45.254Z,12.57
2023-05-15T06:50:17.217Z,11.95
2023-05-15T06:52:45.415Z,14.23
2023-05-15T06:55:15.925Z,11.15
2023-05-15T06:57:45.346Z,13.88
2023-05-15T07:00:17.553Z,11.95
2023-05-15T07:02:46.873Z,12.45
2023-05-15T07:05:16.969Z,13.60
2023-05-15T07:07:48.089Z,12.75
2023-05-15T07:10:17.687Z,13.32
2023-05-15T07:12:47.046Z,12.68
2023-05-15T07:15:17.543Z,13.00
2023-05-15T07:17:46.960Z,13.25
2023-05-15T07:20:16.779Z,13.88
2023-05-15T07:22:55.799Z,11.45
2023-05-15T07:25:26.066Z,12.98
2023-05-15T07:27:54.983Z,12.68
2023-05-15T07:30:23.866Z,12.25
2023-05-15T07:32:53.596Z,13.15
2023-05-15T07:35:24.594Z,12.23
2023-05-15T07:37:54.119Z,14.20
2023-05-15T07:40:23.777Z,15.52
2023-05-15T07:42:51.890Z,12.95
2023-05-15T07:45:20.266Z,13.05
2023-05-15T07:47:51.426Z,12.02
2023-05-15T07:50:22.631Z,12.20
2023-05-15T07:52:52.276Z,14.15
2023-05-15T07:55:23.142Z,13.65
2023-05-15T07:57:54.239Z,13.85
2023-05-15T08:00:23.069Z,13.57
2023-05-15T08:02:51.441Z,13.85
2023-05-15T08:05:20.874Z,13.35
2023-05-15T08:07:49.072Z,11.65
2023-05-15T08:10:20.031Z,12.63
2023-05-15T08:12:49.867Z,12.52
2023-05-15T08:15:18.633Z,12.38
2023-05-15T08:17:48.377Z,10.82
2023-05-15T08:20:16.610Z,16.92
2023-05-15T08:22:45.942Z,14.00
2023-05-15T08:25:14.107Z,13.32
2023-05-15T08:27:46.086Z,12.82
2023-05-15T08:30:15.249Z,12.15
2023-05-15T08:32:46.895Z,13.80
2023-05-15T08:35:16.527Z,12.40
2023-05-15T08:37:45.847Z,14.25
2023-05-15T08:40:14.713Z,12.95
2023-05-15T08:42:49.461Z,12.80
2023-05-15T08:45:21.336Z,13.60
2023-05-15T08:47:49.589Z,13.70
2023-05-15T08:50:18.800Z,15.20
2023-05-15T08:52:49.503Z,13.25
2023-05-15T08:55:20.358Z,13.77
2023-05-15T08:57:51.485Z,16.00
2023-05-15T09:00:23.695Z,14.05
2023-05-15T09:02:55.583Z,17.83
2023-05-15T09:05:26.467Z,14.98
2023-05-15T09:07:56.594Z,14.88
2023-05-15T09:10:25.819Z,14.25
2023-05-15T09:12:57.586Z,13.95
2023-05-15T09:15:29.199Z,13.80
2023-05-15T09:18:00.376Z,14.18
2023-05-15T09:20:31.374Z,16.80
2023-05-15T09:23:04.283Z,12.90
2023-05-15T09:25:38.604Z,14.40
2023-05-15T09:28:13.870Z,14.80
2023-05-15T09:30:44.089Z,16.35
2023-05-15T09:33:14.218Z,17.30
2023-05-15T09:35:45.249Z,19.13
2023-05-15T09:38:15.443Z,14.95
2023-05-15T09:40:43.584Z,16.15
2023-05-15T09:43:14.571Z,14.45
2023-05-15T09:45:44.318Z,17.10
2023-05-15T09:48:15.659Z,20.05
2023-05-15T09:50:45.295Z,17.52
2023-05-15T09:53:14.432Z,22.05
2023-05-15T09:55:44.266Z,24.98
2023-05-15T09:58:16.194Z,22.38
2023-05-15T10:00:49.572Z,27.90
2023-05-15T10:03:20.698Z,30.73
2023-05-15T10:05:51.332Z,25.98
2023-05-15T10:08:28.391Z,26.50
2023-05-15T10:11:02.861Z,26.85
2023-05-15T10:13:35.346Z,24.60
2023-05-15T10:16:07.366Z,23.85
2023-05-15T10:18:40.764Z,24.20
2023-05-15T10:21:10.812Z,25.90
2023-05-15T10:23:41.881Z,26.60
2023-05-15T10:26:17.032Z,25.52
2023-05-15T10:28:49.000Z,24.58
2023-05-15T10:31:21.357Z,25.35
2023-05-15T10:33:53.783Z,22.02
2023-05-15T10:36:24.663Z,22.88
2023-05-15T10:38:54.515Z,18.35
2023-05-15T10:41:25.901Z,22.75
2023-05-15T10:43:59.186Z,19.85
2023-05-15T10:46:31.444Z,20.88
2023-05-15T10:49:01.759Z,20.25
2023-05-15T10:51:36.026Z,19.67
2023-05-15T10:54:05.896Z,26.40
2023-05-15T10:56:39.459Z,27.95
2023-05-15T10:59:12.546Z,25.98
2023-05-15T11:01:42.553Z,27.33
2023-05-15T11:04:13.291Z,26.33
2023-05-15T11:06:44.838Z,27.73
2023-05-15T11:09:41.557Z,31.33
2023-05-15T11:12:11.766Z,45.33
2023-05-15T11:15:06.958Z,45.00
2023-05-15T11:17:35.310Z,42.45
2023-05-15T11:20:05.829Z,46.17
2023-05-15T11:22:36.940Z,46.53
2023-05-15T11:25:10.170Z,48.22
2023-05-15T11:27:46.357Z,52.00
2023-05-15T11:30:21.725Z,47.92
2023-05-15T11:32:58.426Z,53.15
2023-05-15T11:35:32.150Z,50.03
2023-05-15T11:38:07.025Z,61.05
2023-05-15T11:40:47.401Z,46.25
2023-05-15T11:43:22.476Z,48.15
2023-05-15T11:45:55.990Z,42.83
2023-05-15T11:48:31.392Z,40.63
2023-05-15T11:51:03.026Z,41.45
2023-05-15T11:53:34.305Z,34.78
2023-05-15T11:56:03.917Z,31.15
2023-05-15T11:58:34.765Z,30.85
2023-05-15T12:01:07.782Z,31.23
2023-05-15T12:03:37.104Z,36.80
2023-05-15T12:06:06.248Z,31.17
2023-05-15T12:08:37.649Z,27.15
2023-05-15T12:11:08.812Z,32.65
2023-05-15T12:13:39.041Z,27.88
2023-05-15T12:16:10.169Z,32.42
2023-05-15T12:18:39.529Z,28.90
2023-05-15T12:21:12.376Z,31.90
2023-05-15T12:23:41.332Z,32.55
2023-05-15T12:26:09.559Z,20.23
2023-05-15T12:28:39.873Z,21.83
2023-05-15T12:31:13.146Z,26.55
2023-05-15T12:33:43.029Z,17.23
2023-05-15T12:36:11.306Z,21.38
2023-05-15T12:41:14.008Z,24.58
2023-05-15T12:43:44.734Z,32.60
2023-05-15T12:46:15.949Z,33.38
2023-05-15T12:48:45.878Z,33.28
2023-05-15T12:51:17.695Z,34.17
2023-05-15T12:53:49.089Z,36.47
2023-05-15T12:56:18.461Z,38.22
2023-05-15T12:58:49.439Z,40.95
2023-05-15T13:01:20.860Z,32.00
2023-05-15T13:03:52.540Z,34.15
2023-05-15T13:06:29.336Z,23.15
2023-05-15T13:09:08.855Z,28.40
2023-05-15T13:11:37.149Z,14.70
2023-05-15T13:14:17.168Z,12.60
2023-05-15T13:16:49.346Z,12.82
2023-05-15T13:19:17.798Z,22.40
2023-05-15T13:21:48.586Z,32.80
2023-05-15T13:24:16.786Z,37.42
2023-05-15T13:26:46.175Z,31.15
2023-05-15T13:29:15.797Z,20.40
2023-05-15T13:31:47.919Z,21.95
2023-05-15T13:34:16.916Z,27.27
2023-05-15T13:36:45.640Z,30.13
2023-05-15T13:39:15.538Z,31.92
2023-05-15T13:41:46.455Z,25.92
2023-05-15T13:44:16.451Z,26.10
2023-05-15T13:46:47.939Z,24.33
2023-05-15T13:49:18.812Z,27.58
2023-05-15T13:51:47.613Z,34.22
2023-05-15T13:54:17.147Z,40.53
2023-05-15T13:56:47.620Z,42.15
2023-05-15T13:59:15.783Z,31.00
2023-05-15T14:01:44.171Z,26.13
2023-05-15T14:06:44.143Z,29.20
2023-05-15T14:09:15.825Z,28.25
2023-05-15T14:11:46.436Z,30.20
2023-05-15T14:14:14.639Z,37.83
2023-05-15T14:16:44.282Z,29.25
2023-05-15T14:19:15.187Z,23.70
2023-05-15T14:21:44.997Z,27.70
2023-05-15T14:24:13.523Z,38.63
2023-05-15T14:26:45.532Z,17.85
2023-05-15T14:29:14.273Z,15.45
2023-05-15T14:31:44.351Z,16.50
2023-05-15T14:34:13.877Z,21.98
2023-05-15T14:36:42.233Z,17.70
2023-05-15T14:41:41.032Z,18.98
2023-05-15T14:44:09.251Z,16.33
2023-05-15T14:46:39.148Z,23.30
2023-05-15T14:49:08.932Z,17.58
2023-05-15T14:51:39.724Z,17.38
2023-05-15T14:54:09.302Z,18.25
2023-05-15T14:56:39.204Z,18.08
2023-05-15T14:59:07.565Z,16.45
2023-05-15T15:04:08.745Z,20.50
2023-05-15T15:06:41.638Z,25.17
2023-05-15T15:09:12.741Z,22.17
2023-05-15T15:11:42.838Z,28.23
2023-05-15T15:14:12.710Z,19.70
2023-05-15T15:16:44.350Z,22.27
2023-05-15T15:19:16.718Z,26.60
2023-05-15T15:21:50.638Z,25.40
2023-05-15T15:24:22.769Z,22.05
2023-05-15T15:26:54.021Z,20.45
2023-05-15T15:29:24.522Z,19.17
2023-05-15T15:31:55.573Z,16.65
2023-05-15T15:34:27.747Z,13.27
2023-05-15T15:37:00.425Z,14.30
2023-05-15T15:39:32.171Z,16.15
2023-05-15T15:42:04.542Z,12.23
2023-05-15T15:44:37.180Z,13.18
2023-05-15T15:47:08.755Z,12.00
2023-05-15T15:49:38.796Z,13.05
2023-05-15T15:52:10.581Z,11.95
2023-05-15T15:54:47.235Z,15.98
2023-05-15T15:57:19.537Z,14.80
2023-05-15T15:59:52.835Z,12.23
2023-05-15T16:02:22.767Z,12.98
2023-05-15T16:04:54.704Z,10.52
2023-05-15T16:07:27.214Z,16.77
2023-05-15T16:10:10.926Z,12.02
2023-05-15T16:12:44.076Z,16.52
2023-05-15T16:15:22.515Z,10.60
2023-05-15T16:17:55.942Z,15.13
2023-05-15T16:20:26.787Z,13.10
2023-05-15T16:23:00.540Z,10.50
2023-05-15T16:25:29.580Z,10.50
2023-05-15T16:31:41.420Z,9.13
2023-05-15T16:34:12.759Z,10.45
2023-05-15T16:36:42.908Z,10.93
2023-05-15T16:39:17.847Z,9.48
2023-05-15T16:41:48.273Z,9.07
2023-05-15T16:45:28.566Z,8.85
2023-05-15T16:48:00.928Z,8.02
2023-05-15T16:50:33.642Z,8.80
2023-05-15T16:53:07.388Z,9.38
2023-05-15T16:55:41.282Z,12.35
2023-05-15T16:58:12.648Z,8.95
2023-05-15T17:00:42.789Z,9.02
2023-05-15T17:03:13.016Z,11.10
2023-05-15T17:05:45.350Z,12.38
2023-05-15T17:08:16.088Z,12.15
2023-05-15T17:10:50.129Z,12.25
2023-05-15T17:13:22.060Z,13.57
2023-05-15T17:15:53.679Z,12.88
2023-05-15T17:18:24.884Z,15.48
2023-05-15T17:20:56.362Z,12.75
2023-05-15T17:23:27.918Z,10.38
2023-05-15T17:26:00.895Z,10.63
2023-05-15T17:28:32.794Z,10.43
2023-05-15T17:31:02.902Z,10.45
2023-05-15T17:33:33.276Z,11.05
2023-05-15T17:36:04.282Z,9.75
2023-05-15T17:38:36.079Z,12.38
2023-05-15T17:41:09.919Z,10.52
2023-05-15T17:43:40.148Z,8.95
2023-05-15T17:46:11.350Z,8.00
2023-05-15T17:48:41.266Z,9.27
2023-05-15T17:51:12.089Z,9.90
2023-05-15T17:53:43.021Z,11.10
2023-05-15T17:56:14.403Z,8.45
2023-05-15T17:58:43.982Z,9.40
2023-05-15T18:01:15.812Z,9.23
2023-05-15T18:03:45.813Z,8.75
2023-05-15T18:06:17.147Z,11.88
2023-05-15T18:08:47.952Z,12.07
2023-05-15T18:11:22.434Z,10.30
2023-05-15T18:13:52.047Z,11.82
2023-05-15T18:16:23.871Z,11.93
2023-05-15T18:18:54.957Z,13.45
2023-05-15T18:21:28.100Z,14.02
2023-05-15T18:23:59.006Z,13.30
2023-05-15T18:26:31.716Z,10.68
2023-05-15T18:29:04.447Z,10.70
2023-05-15T18:31:35.938Z,12.00
2023-05-15T18:34:06.792Z,11.40
2023-05-15T18:36:41.444Z,14.60
2023-05-15T18:39:14.928Z,15.65
2023-05-15T18:41:54.883Z,15.48
2023-05-15T18:44:24.996Z,11.93
2023-05-15T18:46:54.728Z,12.02
2023-05-15T18:49:24.148Z,6.38
2023-05-15T18:51:53.949Z,10.23
2023-05-15T18:54:25.073Z,12.00
2023-05-15T18:56:56.225Z,12.52
2023-05-15T18:59:26.477Z,11.43
2023-05-15T19:01:57.694Z,9.93
2023-05-15T19:04:26.146Z,8.80
2023-05-15T19:06:58.298Z,7.25
2023-05-15T19:09:27.914Z,6.70
2023-05-15T19:12:02.445Z,6.43
2023-05-15T19:14:33.883Z,4.32
2023-05-15T19:17:02.140Z,5.40
2023-05-15T19:19:30.431Z,6.22
2023-05-15T19:22:00.503Z,7.95
2023-05-15T19:24:32.709Z,9.10
2023-05-15T19:27:05.533Z,10.27
2023-05-15T19:29:35.307Z,8.45
2023-05-15T19:34:33.584Z,11.23
2023-05-15T19:37:02.304Z,13.27
2023-05-15T19:39:34.901Z,10.60
2023-05-15T19:42:04.503Z,12.95
2023-05-15T19:44:33.878Z,13.25
2023-05-15T19:47:02.049Z,14.48
2023-05-15T19:49:33.014Z,16.67
2023-05-15T19:52:01.205Z,14.15
2023-05-15T19:54:32.045Z,17.48
2023-05-15T19:57:02.838Z,15.35
2023-05-15T19:59:33.640Z,20.50
2023-05-15T20:02:05.644Z,18.60
2023-05-15T20:04:35.259Z,20.52
2023-05-15T20:07:03.973Z,25.25
2023-05-15T20:09:33.337Z,20.80
2023-05-15T20:12:03.540Z,23.15
2023-05-15T20:14:35.501Z,19.63
2023-05-15T20:17:04.635Z,22.15
2023-05-15T20:19:33.329Z,21.83
2023-05-15T20:22:03.586Z,24.88
2023-05-15T20:24:33.206Z,20.02
2023-05-15T20:27:05.711Z,27.35
2023-05-15T20:29:37.914Z,22.20
2023-05-15T20:32:09.361Z,23.80
2023-05-15T20:34:42.644Z,25.58
2023-05-15T20:37:12.749Z,24.80
2023-05-15T20:39:43.738Z,20.83
2023-05-15T20:42:13.018Z,20.17
2023-05-15T20:44:45.189Z,25.08
2023-05-15T20:47:13.335Z,20.30
2023-05-15T20:49:44.602Z,25.52
2023-05-15T20:52:13.258Z,23.00
2023-05-15T20:54:42.603Z,22.95
2023-05-15T20:57:12.077Z,22.48
2023-05-15T20:59:44.070Z,25.02
2023-05-15T21:02:12.221Z,21.45
2023-05-15T21:11:33.552Z,21.88
2023-05-15T21:14:02.907Z,21.90
2023-05-15T21:16:32.465Z,19.95
2023-05-15T21:19:02.420Z,20.50
2023-05-15T21:21:32.382Z,23.20
2023-05-15T21:24:04.416Z,22.58
2023-05-15T21:26:33.976Z,23.73
2023-05-15T21:29:02.737Z,22.20
2023-05-15T21:31:34.750Z,21.02
2023-05-15T21:34:04.516Z,24.20
2023-05-15T21:36:35.590Z,24.25
2023-05-15T21:39:05.454Z,22.60
2023-05-15T21:41:36.015Z,22.02
2023-05-15T21:44:05.725Z,22.15
2023-05-15T21:49:04.736Z,23.27
2023-05-15T21:51:35.696Z,25.10
2023-05-15T21:54:05.677Z,24.08
2023-05-15T21:56:35.418Z,23.85
2023-05-15T21:59:07.192Z,24.42
2023-05-15T22:01:38.187Z,21.10
2023-05-15T22:04:08.875Z,25.58
2023-05-15T22:06:37.162Z,28.58
2023-05-15T22:09:06.662Z,21.42
2023-05-15T22:11:34.863Z,24.05
2023-05-15T22:14:04.528Z,23.85
2023-05-15T22:16:33.001Z,18.80
2023-05-15T22:21:32.903Z,23.13
2023-05-15T22:24:05.180Z,26.30
2023-05-15T22:26:37.116Z,22.08
2023-05-15T22:29:07.728Z,21.05
2023-05-15T22:31:37.170Z,20.45
2023-05-15T22:34:07.843Z,19.63
2023-05-15T22:36:38.480Z,19.08
2023-05-15T22:39:08.197Z,20.00
2023-05-15T22:41:38.974Z,19.52
2023-05-15T22:44:07.447Z,18.10
2023-05-15T22:46:37.987Z,22.17
2023-05-15T22:49:09.187Z,20.25
2023-05-15T22:51:38.030Z,19.40
2023-05-15T22:54:08.032Z,21.45
2023-05-15T22:56:38.565Z,20.77
2023-05-15T22:59:07.905Z,17.65
2023-05-15T23:01:37.444Z,17.52
2023-05-15T23:04:09.120Z,15.80
2023-05-15T23:06:38.519Z,20.23
2023-05-15T23:09:09.687Z,19.95
2023-05-15T23:11:38.725Z,19.23
2023-05-15T23:14:08.384Z,16.60
2023-05-15T23:16:37.317Z,19.40
2023-05-15T23:19:08.147Z,18.65
2023-05-15T23:21:36.449Z,13.98
2023-05-15T23:24:05.034Z,14.25
2023-05-15T23:29:03.861Z,17.05
2023-05-15T23:31:33.885Z,13.65
2023-05-15T23:34:02.436Z,16.63
2023-05-15T23:36:31.984Z,16.10
2023-05-15T23:39:00.119Z,15.80
2023-05-15T23:41:29.950Z,11.73
2023-05-15T23:43:58.890Z,13.82
2023-05-15T23:46:29.606Z,12.82
2023-05-15T23:48:58.976Z,16.23
2023-05-15T23:51:28.409Z,15.73
2023-05-15T23:53:57.926Z,17.70
2023-05-15T23:56:28.510Z,16.10
2023-05-15T23:58:58.184Z,14.27
